sensor_id;sensor_type;location;lat;lon;timestamp;P1;durP1;ratioP1;P2;durP2;ratioP2
2756;SDS011;1386;50.862;6.494;2024-02-21T06:45:20;12.53;;;4.50;;
2756;SDS011;1386;50.862;6.494;2024-02-21T06:48:12;8.43;;;4.27;;
2756;SDS011;1386;50.862;6.494;2024-02-21T06:50:48;9.00;;;4.27;;
2756;SDS011;1386;50.862;6.494;2024-02-21T06:53:28;7.70;;;4.77;;
2756;SDS011;1386;50.862;6.494;2024-02-21T06:59:15;8.07;;;5.03;;
2756;SDS011;1386;50.862;6.494;2024-02-21T07:01:54;13.40;;;5.97;;
2756;SDS011;1386;50.862;6.494;2024-02-21T07:04:35;10.43;;;4.90;;
2756;SDS011;1386;50.862;6.494;2024-02-21T07:07:02;10.73;;;5.43;;
2756;SDS011;1386;50.862;6.494;2024-02-21T07:09:32;12.03;;;4.83;;
2756;SDS011;1386;50.862;6.494;2024-02-21T07:12:24;9.13;;;4.70;;
2756;SDS011;1386;50.862;6.494;2024-02-21T07:15:02;8.23;;;4.40;;
2756;SDS011;1386;50.862;6.494;2024-02-21T07:17:53;11.37;;;4.50;;
2756;SDS011;1386;50.862;6.494;2024-02-21T07:20:29;9.63;;;4.40;;
2756;SDS011;1386;50.862;6.494;2024-02-21T07:23:02;16.40;;;5.13;;
2756;SDS011;1386;50.862;6.494;2024-02-21T07:25:51;13.70;;;5.37;;
2756;SDS011;1386;50.862;6.494;2024-02-21T07:28:18;7.10;;;4.53;;
2756;SDS011;1386;50.862;6.494;2024-02-21T07:30:46;10.13;;;4.70;;
2756;SDS011;1386;50.862;6.494;2024-02-21T07:33:38;10.57;;;4.97;;
2756;SDS011;1386;50.862;6.494;2024-02-21T07:36:15;8.47;;;4.43;;
2756;SDS011;1386;50.862;6.494;2024-02-21T07:38:42;10.00;;;4.57;;
2756;SDS011;1386;50.862;6.494;2024-02-21T07:41:10;12.80;;;4.73;;
2756;SDS011;1386;50.862;6.494;2024-02-21T07:43:37;9.07;;;4.47;;
2756;SDS011;1386;50.862;6.494;2024-02-21T07:46:09;5.90;;;4.40;;
2756;SDS011;1386;50.862;6.494;2024-02-21T07:48:38;12.00;;;6.10;;
2756;SDS011;1386;50.862;6.494;2024-02-21T07:51:08;9.33;;;4.30;;
2756;SDS011;1386;50.862;6.494;2024-02-21T07:53:48;13.53;;;4.83;;
2756;SDS011;1386;50.862;6.494;2024-02-21T07:56:22;9.63;;;6.20;;
2756;SDS011;1386;50.862;6.494;2024-02-21T07:58:49;11.40;;;4.37;;
2756;SDS011;1386;50.862;6.494;2024-02-21T08:01:18;6.23;;;4.03;;
2756;SDS011;1386;50.862;6.494;2024-02-21T08:04:07;7.70;;;4.37;;
2756;SDS011;1386;50.862;6.494;2024-02-21T08:06:36;5.53;;;3.80;;
2756;SDS011;1386;50.862;6.494;2024-02-21T08:22:51;6.13;;;3.53;;
2756;SDS011;1386;50.862;6.494;2024-02-21T08:25:29;12.20;;;3.80;;
2756;SDS011;1386;50.862;6.494;2024-02-21T08:28:06;6.10;;;3.37;;
2756;SDS011;1386;50.862;6.494;2024-02-21T08:30:44;5.50;;;3.23;;
2756;SDS011;1386;50.862;6.494;2024-02-21T08:33:13;7.00;;;3.50;;
2756;SDS011;1386;50.862;6.494;2024-02-21T08:35:49;7.30;;;3.83;;
2756;SDS011;1386;50.862;6.494;2024-02-21T08:38:37;6.93;;;4.07;;
2756;SDS011;1386;50.862;6.494;2024-02-21T08:41:04;7.47;;;4.67;;
2756;SDS011;1386;50.862;6.494;2024-02-21T08:43:31;7.30;;;3.73;;
2756;SDS011;1386;50.862;6.494;2024-02-21T08:46:00;7.33;;;4.10;;
2756;SDS011;1386;50.862;6.494;2024-02-21T08:48:39;5.97;;;3.77;;
2756;SDS011;1386;50.862;6.494;2024-02-21T08:51:08;7.40;;;3.80;;
2756;SDS011;1386;50.862;6.494;2024-02-21T08:53:37;7.43;;;3.50;;
2756;SDS011;1386;50.862;6.494;2024-02-21T08:56:38;4.80;;;3.87;;
2756;SDS011;1386;50.862;6.494;2024-02-21T08:59:05;7.90;;;4.20;;
2756;SDS011;1386;50.862;6.494;2024-02-21T09:01:32;6.50;;;4.17;;
2756;SDS011;1386;50.862;6.494;2024-02-21T09:03:59;10.00;;;3.90;;
2756;SDS011;1386;50.862;6.494;2024-02-21T09:06:29;9.43;;;3.87;;
2756;SDS011;1386;50.862;6.494;2024-02-21T09:08:58;9.83;;;4.30;;
2756;SDS011;1386;50.862;6.494;2024-02-21T09:11:25;8.03;;;3.87;;
2756;SDS011;1386;50.862;6.494;2024-02-21T09:13:53;4.27;;;3.77;;
2756;SDS011;1386;50.862;6.494;2024-02-21T09:16:20;6.30;;;3.60;;
2756;SDS011;1386;50.862;6.494;2024-02-21T09:18:46;5.30;;;3.20;;
2756;SDS011;1386;50.862;6.494;2024-02-21T09:21:13;6.70;;;4.37;;
2756;SDS011;1386;50.862;6.494;2024-02-21T09:23:42;5.57;;;3.70;;
2756;SDS011;1386;50.862;6.494;2024-02-21T09:26:08;9.40;;;4.00;;
2756;SDS011;1386;50.862;6.494;2024-02-21T09:28:38;7.10;;;3.60;;
2756;SDS011;1386;50.862;6.494;2024-02-21T09:31:05;7.33;;;3.67;;
2756;SDS011;1386;50.862;6.494;2024-02-21T09:33:33;8.53;;;3.90;;
2756;SDS011;1386;50.862;6.494;2024-02-21T09:36:00;8.30;;;3.80;;
2756;SDS011;1386;50.862;6.494;2024-02-21T09:38:30;8.90;;;3.93;;
2756;SDS011;1386;50.862;6.494;2024-02-21T09:41:00;6.67;;;3.50;;
2756;SDS011;1386;50.862;6.494;2024-02-21T09:43:34;8.03;;;3.67;;
2756;SDS011;1386;50.862;6.494;2024-02-21T09:46:04;7.60;;;4.10;;
2756;SDS011;1386;50.862;6.494;2024-02-21T09:48:35;4.10;;;3.07;;
2756;SDS011;1386;50.862;6.494;2024-02-21T09:51:13;5.20;;;3.90;;
2756;SDS011;1386;50.862;6.494;2024-02-21T09:53:41;6.57;;;3.93;;
2756;SDS011;1386;50.862;6.494;2024-02-21T09:56:10;8.00;;;4.10;;
2756;SDS011;1386;50.862;6.494;2024-02-21T09:58:38;5.63;;;3.70;;
2756;SDS011;1386;50.862;6.494;2024-02-21T10:01:06;5.30;;;3.47;;
2756;SDS011;1386;50.862;6.494;2024-02-21T10:03:34;10.30;;;4.37;;
2756;SDS011;1386;50.862;6.494;2024-02-21T10:06:00;7.10;;;4.00;;
2756;SDS011;1386;50.862;6.494;2024-02-21T10:08:28;4.70;;;3.23;;
2756;SDS011;1386;50.862;6.494;2024-02-21T10:10:55;6.30;;;3.60;;
2756;SDS011;1386;50.862;6.494;2024-02-21T10:13:26;8.50;;;3.60;;
2756;SDS011;1386;50.862;6.494;2024-02-21T10:16:01;7.10;;;4.17;;
2756;SDS011;1386;50.862;6.494;2024-02-21T10:18:32;6.13;;;3.50;;
2756;SDS011;1386;50.862;6.494;2024-02-21T10:21:00;5.37;;;3.67;;
2756;SDS011;1386;50.862;6.494;2024-02-21T10:23:27;11.17;;;5.00;;
2756;SDS011;1386;50.862;6.494;2024-02-21T10:26:04;8.13;;;3.77;;
2756;SDS011;1386;50.862;6.494;2024-02-21T10:28:33;6.03;;;4.10;;
2756;SDS011;1386;50.862;6.494;2024-02-21T10:31:00;6.53;;;4.20;;
2756;SDS011;1386;50.862;6.494;2024-02-21T10:33:27;6.97;;;4.00;;
2756;SDS011;1386;50.862;6.494;2024-02-21T10:36:05;4.43;;;3.50;;
2756;SDS011;1386;50.862;6.494;2024-02-21T10:38:38;9.40;;;3.93;;
2756;SDS011;1386;50.862;6.494;2024-02-21T10:41:05;5.60;;;3.27;;
2756;SDS011;1386;50.862;6.494;2024-02-21T10:43:37;6.30;;;3.70;;
2756;SDS011;1386;50.862;6.494;2024-02-21T10:46:06;7.47;;;3.63;;
2756;SDS011;1386;50.862;6.494;2024-02-21T10:48:38;9.80;;;3.57;;
2756;SDS011;1386;50.862;6.494;2024-02-21T10:51:13;4.83;;;3.50;;
2756;SDS011;1386;50.862;6.494;2024-02-21T10:53:44;6.07;;;4.30;;
2756;SDS011;1386;50.862;6.494;2024-02-21T10:56:19;14.60;;;4.00;;
2756;SDS011;1386;50.862;6.494;2024-02-21T12:14:02;7.40;;;4.10;;
2756;SDS011;1386;50.862;6.494;2024-02-21T12:16:30;7.07;;;3.70;;
2756;SDS011;1386;50.862;6.494;2024-02-21T12:18:57;8.13;;;3.97;;
2756;SDS011;1386;50.862;6.494;2024-02-21T12:21:25;6.67;;;3.30;;
2756;SDS011;1386;50.862;6.494;2024-02-21T12:23:53;5.57;;;3.70;;
2756;SDS011;1386;50.862;6.494;2024-02-21T12:26:21;7.90;;;3.63;;
2756;SDS011;1386;50.862;6.494;2024-02-21T12:28:52;4.17;;;3.60;;
2756;SDS011;1386;50.862;6.494;2024-02-21T12:31:25;9.90;;;3.60;;
2756;SDS011;1386;50.862;6.494;2024-02-21T12:33:53;10.40;;;3.80;;
2756;SDS011;1386;50.862;6.494;2024-02-21T12:36:27;6.40;;;3.60;;
2756;SDS011;1386;50.862;6.494;2024-02-21T13:57:08;5.60;;;3.60;;
2756;SDS011;1386;50.862;6.494;2024-02-21T13:59:41;9.37;;;3.80;;
2756;SDS011;1386;50.862;6.494;2024-02-21T14:02:20;7.07;;;4.20;;
2756;SDS011;1386;50.862;6.494;2024-02-21T14:04:48;6.57;;;4.00;;
2756;SDS011;1386;50.862;6.494;2024-02-21T14:07:19;4.73;;;3.73;;
2756;SDS011;1386;50.862;6.494;2024-02-21T14:09:46;8.43;;;3.77;;
2756;SDS011;1386;50.862;6.494;2024-02-21T14:12:28;6.77;;;4.10;;
2756;SDS011;1386;50.862;6.494;2024-02-21T14:15:06;7.30;;;3.90;;
2756;SDS011;1386;50.862;6.494;2024-02-21T14:17:37;8.20;;;3.83;;
2756;SDS011;1386;50.862;6.494;2024-02-21T14:20:15;12.00;;;5.33;;
2756;SDS011;1386;50.862;6.494;2024-02-21T14:22:52;7.47;;;4.23;;
2756;SDS011;1386;50.862;6.494;2024-02-21T14:25:19;6.60;;;4.33;;
2756;SDS011;1386;50.862;6.494;2024-02-21T14:27:48;4.93;;;3.40;;
2756;SDS011;1386;50.862;6.494;2024-02-21T14:30:15;5.23;;;3.20;;
2756;SDS011;1386;50.862;6.494;2024-02-21T14:32:59;5.20;;;3.10;;
2756;SDS011;1386;50.862;6.494;2024-02-21T14:35:34;5.70;;;3.30;;
2756;SDS011;1386;50.862;6.494;2024-02-21T14:38:13;4.60;;;2.70;;
2756;SDS011;1386;50.862;6.494;2024-02-21T14:40:55;5.07;;;3.10;;
2756;SDS011;1386;50.862;6.494;2024-02-21T14:43:57;6.43;;;3.83;;
2756;SDS011;1386;50.862;6.494;2024-02-21T14:46:39;7.37;;;3.87;;
2756;SDS011;1386;50.862;6.494;2024-02-21T14:49:06;3.20;;;2.90;;
2756;SDS011;1386;50.862;6.494;2024-02-21T14:54:24;3.93;;;3.00;;
2756;SDS011;1386;50.862;6.494;2024-02-21T14:56:52;6.70;;;2.70;;
2756;SDS011;1386;50.862;6.494;2024-02-21T14:59:23;7.20;;;3.30;;
2756;SDS011;1386;50.862;6.494;2024-02-21T15:01:50;4.47;;;3.20;;
2756;SDS011;1386;50.862;6.494;2024-02-21T15:04:17;3.70;;;2.50;;
2756;SDS011;1386;50.862;6.494;2024-02-21T15:06:44;5.50;;;2.93;;
2756;SDS011;1386;50.862;6.494;2024-02-21T15:09:13;4.77;;;2.53;;
2756;SDS011;1386;50.862;6.494;2024-02-21T15:11:44;4.87;;;2.60;;
2756;SDS011;1386;50.862;6.494;2024-02-21T15:14:11;3.93;;;2.37;;
2756;SDS011;1386;50.862;6.494;2024-02-21T15:16:39;6.30;;;3.20;;
2756;SDS011;1386;50.862;6.494;2024-02-21T15:19:06;5.40;;;3.70;;
2756;SDS011;1386;50.862;6.494;2024-02-21T15:21:33;7.37;;;2.80;;
2756;SDS011;1386;50.862;6.494;2024-02-21T15:24:04;3.50;;;2.80;;
2756;SDS011;1386;50.862;6.494;2024-02-21T15:26:31;4.70;;;2.70;;
2756;SDS011;1386;50.862;6.494;2024-02-21T15:28:58;4.40;;;3.57;;
2756;SDS011;1386;50.862;6.494;2024-02-21T15:31:25;7.57;;;3.17;;
2756;SDS011;1386;50.862;6.494;2024-02-21T15:33:54;4.53;;;2.67;;
2756;SDS011;1386;50.862;6.494;2024-02-21T15:36:21;5.23;;;2.87;;
2756;SDS011;1386;50.862;6.494;2024-02-21T15:38:48;3.80;;;2.90;;
2756;SDS011;1386;50.862;6.494;2024-02-21T15:41:15;4.17;;;2.93;;
2756;SDS011;1386;50.862;6.494;2024-02-21T15:43:46;3.83;;;2.80;;
2756;SDS011;1386;50.862;6.494;2024-02-21T15:46:13;4.17;;;2.60;;
2756;SDS011;1386;50.862;6.494;2024-02-21T15:48:40;4.93;;;2.70;;
2756;SDS011;1386;50.862;6.494;2024-02-21T15:51:08;3.23;;;2.43;;
2756;SDS011;1386;50.862;6.494;2024-02-21T15:53:35;4.43;;;3.13;;
2756;SDS011;1386;50.862;6.494;2024-02-21T15:56:03;7.13;;;2.67;;
2756;SDS011;1386;50.862;6.494;2024-02-21T15:58:31;3.83;;;2.80;;
2756;SDS011;1386;50.862;6.494;2024-02-21T16:00:58;4.03;;;2.80;;
2756;SDS011;1386;50.862;6.494;2024-02-21T16:03:25;7.23;;;2.90;;
2756;SDS011;1386;50.862;6.494;2024-02-21T16:05:52;4.20;;;2.87;;
2756;SDS011;1386;50.862;6.494;2024-02-21T16:08:20;3.20;;;2.70;;
2756;SDS011;1386;50.862;6.494;2024-02-21T16:10:49;5.93;;;3.13;;
2756;SDS011;1386;50.862;6.494;2024-02-21T16:13:16;4.63;;;3.33;;
2756;SDS011;1386;50.862;6.494;2024-02-21T16:15:43;3.50;;;3.10;;
2756;SDS011;1386;50.862;6.494;2024-02-21T16:18:13;5.10;;;4.13;;
2756;SDS011;1386;50.862;6.494;2024-02-21T16:20:45;7.27;;;3.73;;
2756;SDS011;1386;50.862;6.494;2024-02-21T16:23:12;7.00;;;3.90;;
2756;SDS011;1386;50.862;6.494;2024-02-21T16:25:41;4.83;;;3.20;;
2756;SDS011;1386;50.862;6.494;2024-02-21T16:28:09;4.60;;;3.13;;
2756;SDS011;1386;50.862;6.494;2024-02-21T16:30:36;6.27;;;3.43;;
2756;SDS011;1386;50.862;6.494;2024-02-21T16:33:03;5.70;;;2.90;;
2756;SDS011;1386;50.862;6.494;2024-02-21T16:35:30;6.27;;;3.33;;
2756;SDS011;1386;50.862;6.494;2024-02-21T16:37:57;4.73;;;3.00;;
2756;SDS011;1386;50.862;6.494;2024-02-21T16:40:24;8.70;;;3.20;;
2756;SDS011;1386;50.862;6.494;2024-02-21T16:42:52;6.80;;;2.80;;
2756;SDS011;1386;50.862;6.494;2024-02-21T16:45:19;4.30;;;2.80;;
2756;SDS011;1386;50.862;6.494;2024-02-21T16:47:46;3.83;;;2.90;;
2756;SDS011;1386;50.862;6.494;2024-02-21T16:50:13;3.93;;;3.00;;
2756;SDS011;1386;50.862;6.494;2024-02-21T16:52:41;6.03;;;2.80;;
2756;SDS011;1386;50.862;6.494;2024-02-21T16:55:10;6.60;;;2.97;;
2756;SDS011;1386;50.862;6.494;2024-02-21T16:57:37;5.90;;;3.20;;
2756;SDS011;1386;50.862;6.494;2024-02-21T17:00:06;3.40;;;2.70;;
2756;SDS011;1386;50.862;6.494;2024-02-21T17:02:36;7.73;;;2.53;;
2756;SDS011;1386;50.862;6.494;2024-02-21T17:05:04;4.50;;;2.30;;
2756;SDS011;1386;50.862;6.494;2024-02-21T17:07:31;5.33;;;2.70;;
2756;SDS011;1386;50.862;6.494;2024-02-21T17:09:58;5.87;;;2.70;;
2756;SDS011;1386;50.862;6.494;2024-02-21T17:12:26;4.33;;;2.73;;
2756;SDS011;1386;50.862;6.494;2024-02-21T17:14:53;5.10;;;2.63;;
2756;SDS011;1386;50.862;6.494;2024-02-21T17:17:21;4.70;;;2.50;;
2756;SDS011;1386;50.862;6.494;2024-02-21T17:19:48;6.03;;;3.07;;
2756;SDS011;1386;50.862;6.494;2024-02-21T17:22:15;3.73;;;3.03;;
2756;SDS011;1386;50.862;6.494;2024-02-21T17:24:42;2.87;;;2.43;;
2756;SDS011;1386;50.862;6.494;2024-02-21T17:27:09;5.73;;;3.07;;
2756;SDS011;1386;50.862;6.494;2024-02-21T17:29:36;6.83;;;3.37;;
2756;SDS011;1386;50.862;6.494;2024-02-21T17:32:04;4.17;;;3.20;;
2756;SDS011;1386;50.862;6.494;2024-02-21T17:34:34;5.60;;;2.90;;
2756;SDS011;1386;50.862;6.494;2024-02-21T17:37:01;8.97;;;3.50;;
2756;SDS011;1386;50.862;6.494;2024-02-21T17:39:28;8.67;;;3.40;;
2756;SDS011;1386;50.862;6.494;2024-02-21T17:41:55;5.73;;;3.10;;
2756;SDS011;1386;50.862;6.494;2024-02-21T17:44:22;5.07;;;3.20;;
2756;SDS011;1386;50.862;6.494;2024-02-21T17:46:50;7.77;;;3.83;;
2756;SDS011;1386;50.862;6.494;2024-02-21T17:49:17;5.93;;;3.30;;
2756;SDS011;1386;50.862;6.494;2024-02-21T17:51:47;8.20;;;3.90;;
2756;SDS011;1386;50.862;6.494;2024-02-21T17:54:14;4.30;;;3.03;;
2756;SDS011;1386;50.862;6.494;2024-02-21T17:56:41;6.60;;;3.83;;
2756;SDS011;1386;50.862;6.494;2024-02-21T17:59:08;8.10;;;3.80;;
2756;SDS011;1386;50.862;6.494;2024-02-21T18:01:37;5.33;;;3.10;;
2756;SDS011;1386;50.862;6.494;2024-02-21T18:04:04;4.53;;;3.23;;
2756;SDS011;1386;50.862;6.494;2024-02-21T19:37:43;5.50;;;3.20;;
2756;SDS011;1386;50.862;6.494;2024-02-21T19:40:10;3.73;;;2.80;;
2756;SDS011;1386;50.862;6.494;2024-02-21T19:42:38;5.17;;;2.37;;
2756;SDS011;1386;50.862;6.494;2024-02-21T19:45:06;6.70;;;3.87;;
2756;SDS011;1386;50.862;6.494;2024-02-21T19:47:34;4.00;;;3.00;;
2756;SDS011;1386;50.862;6.494;2024-02-21T19:50:01;3.50;;;3.07;;
2756;SDS011;1386;50.862;6.494;2024-02-21T19:52:28;7.10;;;2.90;;
2756;SDS011;1386;50.862;6.494;2024-02-21T19:54:57;5.60;;;3.50;;
2756;SDS011;1386;50.862;6.494;2024-02-21T19:57:24;5.60;;;3.30;;
2756;SDS011;1386;50.862;6.494;2024-02-21T19:59:51;5.27;;;3.30;;
2756;SDS011;1386;50.862;6.494;2024-02-21T20:02:20;3.90;;;3.10;;
2756;SDS011;1386;50.862;6.494;2024-02-21T20:04:49;4.30;;;2.90;;
2756;SDS011;1386;50.862;6.494;2024-02-21T20:07:16;6.47;;;3.40;;
2756;SDS011;1386;50.862;6.494;2024-02-21T20:09:45;7.27;;;2.87;;
2756;SDS011;1386;50.862;6.494;2024-02-21T20:12:14;3.50;;;2.30;;
2756;SDS011;1386;50.862;6.494;2024-02-21T20:23:32;3.53;;;1.93;;
2756;SDS011;1386;50.862;6.494;2024-02-21T20:26:03;2.03;;;1.83;;
2756;SDS011;1386;50.862;6.494;2024-02-21T20:28:32;2.00;;;1.80;;
2756;SDS011;1386;50.862;6.494;2024-02-21T20:30:59;2.43;;;1.80;;
2756;SDS011;1386;50.862;6.494;2024-02-21T20:33:26;3.50;;;2.33;;
2756;SDS011;1386;50.862;6.494;2024-02-21T20:35:54;1.93;;;1.73;;
2756;SDS011;1386;50.862;6.494;2024-02-21T20:38:22;2.77;;;2.23;;
2756;SDS011;1386;50.862;6.494;2024-02-21T20:40:49;7.70;;;2.20;;
2756;SDS011;1386;50.862;6.494;2024-02-21T20:43:16;2.30;;;1.80;;
2756;SDS011;1386;50.862;6.494;2024-02-21T20:45:45;2.00;;;1.80;;
2756;SDS011;1386;50.862;6.494;2024-02-21T20:48:12;3.07;;;1.80;;
2756;SDS011;1386;50.862;6.494;2024-02-21T20:50:39;1.50;;;1.40;;
2756;SDS011;1386;50.862;6.494;2024-02-21T20:53:06;2.80;;;1.70;;
2756;SDS011;1386;50.862;6.494;2024-02-21T20:55:33;1.70;;;1.60;;
2756;SDS011;1386;50.862;6.494;2024-02-21T20:58:00;1.77;;;1.50;;
2756;SDS011;1386;50.862;6.494;2024-02-21T21:00:27;1.50;;;1.40;;
2756;SDS011;1386;50.862;6.494;2024-02-21T22:12:44;1.20;;;1.10;;
2756;SDS011;1386;50.862;6.494;2024-02-21T22:15:11;0.90;;;0.90;;
2756;SDS011;1386;50.862;6.494;2024-02-21T22:17:38;1.23;;;1.00;;
2756;SDS011;1386;50.862;6.494;2024-02-21T22:20:05;1.63;;;1.00;;
2756;SDS011;1386;50.862;6.494;2024-02-21T22:22:33;1.70;;;0.90;;
2756;SDS011;1386;50.862;6.494;2024-02-21T22:25:00;1.03;;;0.93;;
2756;SDS011;1386;50.862;6.494;2024-02-21T22:27:27;0.80;;;0.80;;
2756;SDS011;1386;50.862;6.494;2024-02-21T22:29:57;1.17;;;1.07;;
2756;SDS011;1386;50.862;6.494;2024-02-21T22:32:24;1.00;;;0.90;;
2756;SDS011;1386;50.862;6.494;2024-02-21T22:34:50;1.07;;;0.97;;
2756;SDS011;1386;50.862;6.494;2024-02-21T22:37:17;0.90;;;0.90;;
2756;SDS011;1386;50.862;6.494;2024-02-21T22:39:44;1.13;;;1.00;;
2756;SDS011;1386;50.862;6.494;2024-02-21T22:42:11;1.10;;;1.00;;
2756;SDS011;1386;50.862;6.494;2024-02-21T22:44:39;1.00;;;0.90;;
2756;SDS011;1386;50.862;6.494;2024-02-21T22:47:09;1.13;;;1.03;;
2756;SDS011;1386;50.862;6.494;2024-02-21T22:49:36;1.00;;;0.90;;
2756;SDS011;1386;50.862;6.494;2024-02-21T22:52:03;1.20;;;1.10;;
2756;SDS011;1386;50.862;6.494;2024-02-21T22:54:30;1.00;;;0.90;;
2756;SDS011;1386;50.862;6.494;2024-02-21T22:56:57;0.90;;;0.90;;
2756;SDS011;1386;50.862;6.494;2024-02-21T23:03:02;0.87;;;0.83;;
2756;SDS011;1386;50.862;6.494;2024-02-21T23:05:29;1.13;;;1.03;;
2756;SDS011;1386;50.862;6.494;2024-02-21T23:07:56;1.10;;;1.00;;
2756;SDS011;1386;50.862;6.494;2024-02-21T23:10:23;1.20;;;1.00;;
2756;SDS011;1386;50.862;6.494;2024-02-21T23:12:50;1.00;;;0.90;;
2756;SDS011;1386;50.862;6.494;2024-02-21T23:15:17;1.37;;;1.00;;
2756;SDS011;1386;50.862;6.494;2024-02-21T23:17:44;1.00;;;0.90;;
2756;SDS011;1386;50.862;6.494;2024-02-21T23:20:13;1.10;;;1.00;;
2756;SDS011;1386;50.862;6.494;2024-02-21T23:26:28;1.13;;;1.00;;
2756;SDS011;1386;50.862;6.494;2024-02-21T23:30:28;0.90;;;0.90;;
2756;SDS011;1386;50.862;6.494;2024-02-21T23:32:44;0.80;;;0.80;;
2756;SDS011;1386;50.862;6.494;2024-02-21T23:35:42;1.17;;;1.00;;
2756;SDS011;1386;50.862;6.494;2024-02-21T23:38:35;0.87;;;0.87;;
2756;SDS011;1386;50.862;6.494;2024-02-21T23:41:30;0.80;;;0.80;;
2756;SDS011;1386;50.862;6.494;2024-02-21T23:50:30;1.13;;;0.90;;
2756;SDS011;1386;50.862;6.494;2024-02-21T23:53:21;0.83;;;0.83;;
2756;SDS011;1386;50.862;6.494;2024-02-21T23:56:11;0.80;;;0.80;;
2756;SDS011;1386;50.862;6.494;2024-02-21T23:58:55;1.03;;;0.80;;
